Terminal Aerodrome Forecast
Issued by NWS

Home | Current Version | Previous Version | Text Only | Print | Product List | Glossary On
Versions: 1 2 3 4 5 6 7 8 9 10 11 12 13 14 15 16 17 18
000
FTUS41 KBOX 282320
TAFHYA
TAF
KHYA 282320Z 2900/2924 13007KT P6SM SCT120
     FM290700 09004KT P6SM OVC090
     FM291400 08008KT P6SM BKN150=

USA.gov is the U.S. government's official web portal to all federal, state and local government web resources and services.